Martinsville, Virginia
Current Conditions -  °F | °C
As of 4:35 AM on Saturday 01 Nov 2014 (Local Time) from KMTV Reporting Station
Moderate Rain Moderate Rain  
Wind Chill: 39°   Ceiling: 1400
Heat Index: 43°   Visibility: 10mi
Dew Point: 43°   Wind: 7mph
Humidity: 100%   Direction: 10°N
Pressure: 29.77"   Gusts: NA
Location:  36.69°N, 79.87°W
Report Text: KMTV 010835Z AUTO 01006KT 10SM RA SCT006 BKN014 OVC024 06/06 A2977 RMK AO2 P0003 T00600060
Loading
Personal Weather Stations






























Interactive Weather Map New forecast layout! Learn more

10-Day Weather Forecast

Advertisements
Track Severe Weather on mobile